Ride Results

Mil Lel Showstopper (11-03-2012)
Ride distance: 83.0 km

Outcomes - Mil Lel Showstopper (11-03-2012)
Division No. of Entries Retired / DNE Completed Withdrawn Ineligible V/O Percentage Completed
HW 6 - 6 - - - 100.00%
MW 11 - 10 - - 1 90.91%
LW 6 - 6 - - - 100.00%
JN 1 - 1 - - - 100.00%
Totals 24 - 23 - - 1 95.83%
Results - Mil Lel Showstopper (11-03-2012)
No. Rider Horse Place Time Leg Speeds Total
Km/Hr
H/R bpm
Heavyweight
299 Nick Egan Razorback Magic Wings 1 (BC) 4:39:00 17.6, 18.0 17.85 37, 41, 44 (Avg:42)
150 Jody Smith Rage On 2 4:58:00 15.9, 17.4 16.71 34, 40, 47 (Avg:43)
V18 Ken Bradley Twin Peaks Kenny Karaoke 3 5:00:00 17.5, 15.7 16.60 36, 43, 46 (Avg:44)
Sa79 Andrew White Miss X 4 6:14:00 13.1, 13.4 13.32 37, 41, 46 (Avg:43)
311 Tarrant Smith Sandine Liano 5 7:27:00 11.4, 10.8 11.14 32, 43, 47 (Avg:45)
35 Mark Shillabeer Jamat Ibn Shakhaan 6 7:31:00 12.1, 10.1 11.04 38, 43, 42 (Avg:42)
Middleweight
300 Emma Kirby Springfield Park Malibu Illusion 1 4:39:00 17.6, 18.0 17.85 48, 45, 51 (Avg:48)
149 Bob Masters Tookinginnie Sheeba 2 (BC) 5:11:00 16.9, 15.1 16.01 27, 51, 39 (Avg:45)
Sa70 Jil Bourton Veloce Waterloo 3 6:06:00 14.2, 13.0 13.61 33, 45, 45 (Avg:45)
56 Jean Sims Codgers Creek Orion 4 6:06:01 14.2, 13.0 13.61 32, 50, 43 (Avg:46)
37 Kimberley Meesham Omani Jabin 5 6:30:00 12.8, 12.7 12.77 37, 45, 52 (Avg:48)
V107 Jo Brock Im Not Shy (Lady) 6 7:04:00 13.1, 10.6 11.75 33, 41, 48 (Avg:44)
44 Julie White Tarkhim Shar Shalenah 7 7:27:00 11.5, 10.7 11.14 35, 42, 40 (Avg:41)
296 Wendy Grundy Kalody Park Shayesha 8 7:31:00 11.5, 10.5 11.04 39, 50, 48 (Avg:49)
V181 Sharee Court Makaveli Soulja 9 7:37:00 11.3, 10.4 10.90 43, 43, 46 (Avg:44)
232 Jodie Luck Stratharlie Marshall 10 8:03:00 10.5, 10.1 10.31 31, 34, 41 (Avg:37)
155 Karen Alderton Naked Citi Lame L2 0:00:00 13.1, 13.4 - 40, 43, 50 (Avg:46)
Lightweight
21 Cheryl Bullock Chip Chase Knight 1 (BC) 5:00:00 17.5, 15.7 16.60 33, 45, 45 (Avg:45)
36 Danni Van Eck Omani Quandara 2 6:30:00 12.8, 12.7 12.77 40, 35, 40 (Avg:37)
V183 Nicky Robinson Clarendon Sabi 3 7:15:00 12.2, 10.7 11.45 46, 45, 49 (Avg:47)
V230 Rebecca Stoneman Doug 3 7:15:00 12.2, 10.7 11.45 32, 38, 40 (Avg:39)
168 Jessica Aistrope Tarkhim Shar Bastille 5 7:27:00 11.5, 10.7 11.14 28, 35, 45 (Avg:40)
v61 Lois Sharam Musical Gully Carousel 6 7:37:00 11.3, 10.4 10.90 36, 41, 59 (Avg:50)
Junior
255 Alannah Luck Star of Courage 1 (BC) 8:02:00 10.5, 10.1 10.33 36, 45, 49 (Avg:47)